sensor_id;sensor_type;location;lat;lon;timestamp;temperature;humidity
12520;DHT22;6325;49.540;8.364;2022-07-29T08:15:51;23.80;99.90
12520;DHT22;6325;49.540;8.364;2022-07-29T08:40:51;24.80;99.90
12520;DHT22;6325;49.540;8.364;2022-07-29T08:43:18;24.80;99.90
12520;DHT22;6325;49.540;8.364;2022-07-29T08:45:47;24.90;99.90
12520;DHT22;6325;49.540;8.364;2022-07-29T08:48:15;24.70;99.90
12520;DHT22;6325;49.540;8.364;2022-07-29T08:50:43;24.70;99.90
12520;DHT22;6325;49.540;8.364;2022-07-29T08:53:12;24.90;99.90
12520;DHT22;6325;49.540;8.364;2022-07-29T08:55:40;25.10;99.90
12520;DHT22;6325;49.540;8.364;2022-07-29T08:58:10;24.70;99.90
12520;DHT22;6325;49.540;8.364;2022-07-29T09:00:41;25.00;99.90
12520;DHT22;6325;49.540;8.364;2022-07-29T09:03:17;25.00;99.90
12520;DHT22;6325;49.540;8.364;2022-07-29T09:05:45;25.00;99.90
12520;DHT22;6325;49.540;8.364;2022-07-29T09:08:12;25.10;99.90
12520;DHT22;6325;49.540;8.364;2022-07-29T09:10:40;25.10;99.90
12520;DHT22;6325;49.540;8.364;2022-07-29T09:13:12;25.20;99.90
12520;DHT22;6325;49.540;8.364;2022-07-29T09:15:44;25.60;99.90
12520;DHT22;6325;49.540;8.364;2022-07-29T09:18:35;26.00;99.90
12520;DHT22;6325;49.540;8.364;2022-07-29T09:21:05;25.60;99.90
12520;DHT22;6325;49.540;8.364;2022-07-29T09:24:04;25.20;99.90
12520;DHT22;6325;49.540;8.364;2022-07-29T09:26:36;25.80;99.90
12520;DHT22;6325;49.540;8.364;2022-07-29T09:29:10;25.80;99.90
12520;DHT22;6325;49.540;8.364;2022-07-29T09:31:51;26.70;99.90
12520;DHT22;6325;49.540;8.364;2022-07-29T09:34:38;26.40;99.90
12520;DHT22;6325;49.540;8.364;2022-07-29T09:37:45;26.20;99.90
12520;DHT22;6325;49.540;8.364;2022-07-29T09:40:33;26.20;99.90
12520;DHT22;6325;49.540;8.364;2022-07-29T09:43:17;26.30;99.90
12520;DHT22;6325;49.540;8.364;2022-07-29T09:46:18;26.50;99.90
12520;DHT22;6325;49.540;8.364;2022-07-29T09:49:21;26.50;99.90
12520;DHT22;6325;49.540;8.364;2022-07-29T09:52:14;26.70;99.90
12520;DHT22;6325;49.540;8.364;2022-07-29T09:55:11;27.10;99.90
12520;DHT22;6325;49.540;8.364;2022-07-29T09:58:01;26.80;99.90
12520;DHT22;6325;49.540;8.364;2022-07-29T10:00:52;27.30;99.90
12520;DHT22;6325;49.540;8.364;2022-07-29T10:03:34;27.30;99.90
12520;DHT22;6325;49.540;8.364;2022-07-29T10:06:36;27.50;99.90
12520;DHT22;6325;49.540;8.364;2022-07-29T10:09:38;27.60;99.90
12520;DHT22;6325;49.540;8.364;2022-07-29T10:12:54;27.80;99.90
12520;DHT22;6325;49.540;8.364;2022-07-29T10:16:12;28.10;99.90
12520;DHT22;6325;49.540;8.364;2022-07-29T10:19:25;28.40;99.90
12520;DHT22;6325;49.540;8.364;2022-07-29T10:22:45;28.00;99.90
12520;DHT22;6325;49.540;8.364;2022-07-29T10:28:56;28.30;99.90
12520;DHT22;6325;49.540;8.364;2022-07-29T10:32:10;28.40;99.90
12520;DHT22;6325;49.540;8.364;2022-07-29T10:41:50;28.60;99.90
12520;DHT22;6325;49.540;8.364;2022-07-29T10:56:09;28.30;97.40
12520;DHT22;6325;49.540;8.364;2022-07-29T10:59:23;28.40;98.50
12520;DHT22;6325;49.540;8.364;2022-07-29T11:02:00;28.50;97.90
12520;DHT22;6325;49.540;8.364;2022-07-29T11:15:14;28.10;96.50
12520;DHT22;6325;49.540;8.364;2022-07-29T11:18:23;27.50;96.20
12520;DHT22;6325;49.540;8.364;2022-07-29T11:25:36;28.50;96.50
12520;DHT22;6325;49.540;8.364;2022-07-29T11:44:57;29.60;93.00
12520;DHT22;6325;49.540;8.364;2022-07-29T12:07:50;30.40;91.40
12520;DHT22;6325;49.540;8.364;2022-07-29T12:10:17;30.30;90.20
12520;DHT22;6325;49.540;8.364;2022-07-29T12:12:51;30.10;90.70
12520;DHT22;6325;49.540;8.364;2022-07-29T12:15:19;29.80;90.90
12520;DHT22;6325;49.540;8.364;2022-07-29T12:17:47;30.00;90.80
12520;DHT22;6325;49.540;8.364;2022-07-29T12:20:22;30.40;90.60
12520;DHT22;6325;49.540;8.364;2022-07-29T12:22:51;30.80;90.20
12520;DHT22;6325;49.540;8.364;2022-07-29T12:25:20;30.90;88.50
12520;DHT22;6325;49.540;8.364;2022-07-29T12:28:04;30.80;86.00
12520;DHT22;6325;49.540;8.364;2022-07-29T16:05:29;33.00;66.20
12520;DHT22;6325;49.540;8.364;2022-07-29T16:08:57;34.10;61.90
12520;DHT22;6325;49.540;8.364;2022-07-29T16:12:10;34.80;59.40
12520;DHT22;6325;49.540;8.364;2022-07-29T16:25:51;35.50;56.00
12520;DHT22;6325;49.540;8.364;2022-07-29T16:29:12;35.00;55.10
12520;DHT22;6325;49.540;8.364;2022-07-29T16:32:16;34.80;55.10
12520;DHT22;6325;49.540;8.364;2022-07-29T16:41:48;36.00;54.40
12520;DHT22;6325;49.540;8.364;2022-07-29T16:45:07;35.40;53.60
12520;DHT22;6325;49.540;8.364;2022-07-29T16:48:51;34.90;53.60
12520;DHT22;6325;49.540;8.364;2022-07-29T16:52:05;34.50;53.80
12520;DHT22;6325;49.540;8.364;2022-07-29T17:03:52;34.00;53.20
12520;DHT22;6325;49.540;8.364;2022-07-29T17:06:16;33.90;53.90
12520;DHT22;6325;49.540;8.364;2022-07-29T17:09:10;33.20;53.10
12520;DHT22;6325;49.540;8.364;2022-07-29T17:12:00;33.50;53.60
12520;DHT22;6325;49.540;8.364;2022-07-29T17:17:39;31.70;56.20
12520;DHT22;6325;49.540;8.364;2022-07-29T17:20:12;31.80;61.60
12520;DHT22;6325;49.540;8.364;2022-07-29T17:23:17;31.20;64.30
12520;DHT22;6325;49.540;8.364;2022-07-29T17:26:21;30.50;66.20
12520;DHT22;6325;49.540;8.364;2022-07-29T17:29:06;30.20;67.60
12520;DHT22;6325;49.540;8.364;2022-07-29T17:32:00;30.20;70.30
12520;DHT22;6325;49.540;8.364;2022-07-29T17:34:35;30.30;72.40
12520;DHT22;6325;49.540;8.364;2022-07-29T17:37:12;30.10;73.30
12520;DHT22;6325;49.540;8.364;2022-07-29T17:40:11;29.40;74.10
12520;DHT22;6325;49.540;8.364;2022-07-29T17:43:18;28.80;74.80
12520;DHT22;6325;49.540;8.364;2022-07-29T17:45:57;29.10;77.50
12520;DHT22;6325;49.540;8.364;2022-07-29T17:48:33;29.00;77.30
12520;DHT22;6325;49.540;8.364;2022-07-29T17:51:00;28.70;78.00
12520;DHT22;6325;49.540;8.364;2022-07-29T17:53:29;29.10;77.70
12520;DHT22;6325;49.540;8.364;2022-07-29T17:56:05;28.60;79.50
12520;DHT22;6325;49.540;8.364;2022-07-29T17:58:40;28.60;79.20
12520;DHT22;6325;49.540;8.364;2022-07-29T18:01:20;28.50;81.40
12520;DHT22;6325;49.540;8.364;2022-07-29T18:04:01;28.20;82.20
12520;DHT22;6325;49.540;8.364;2022-07-29T18:06:45;28.10;83.60
12520;DHT22;6325;49.540;8.364;2022-07-29T18:09:27;27.70;85.10
12520;DHT22;6325;49.540;8.364;2022-07-29T18:22:10;27.10;90.90
12520;DHT22;6325;49.540;8.364;2022-07-29T18:25:19;27.20;92.80
12520;DHT22;6325;49.540;8.364;2022-07-29T18:28:24;27.00;94.00
12520;DHT22;6325;49.540;8.364;2022-07-29T18:31:42;26.90;95.90
12520;DHT22;6325;49.540;8.364;2022-07-29T18:34:51;27.10;97.50
12520;DHT22;6325;49.540;8.364;2022-07-29T18:44:30;25.60;99.90
12520;DHT22;6325;49.540;8.364;2022-07-29T18:47:26;25.50;99.90
12520;DHT22;6325;49.540;8.364;2022-07-29T19:03:04;25.20;99.90
12520;DHT22;6325;49.540;8.364;2022-07-29T19:06:09;25.20;99.90
12520;DHT22;6325;49.540;8.364;2022-07-29T19:09:15;24.90;99.90
12520;DHT22;6325;49.540;8.364;2022-07-29T19:15:31;25.10;99.90
12520;DHT22;6325;49.540;8.364;2022-07-29T19:21:58;24.90;99.90
12520;DHT22;6325;49.540;8.364;2022-07-29T19:25:15;24.90;99.90
12520;DHT22;6325;49.540;8.364;2022-07-29T19:28:03;24.40;99.90
12520;DHT22;6325;49.540;8.364;2022-07-29T19:30:57;25.20;99.90
